Time;durP1;ratioP1;P1;durP2;ratioP2;P2;SDS_P1;SDS_P2;PMS_P1;PMS_P2;Temp;Humidity;BMP_temperature;BMP_pressure;BME280_temperature;BME280_humidity;BME280_pressure;Samples;Min_cycle;Max_cycle;Signal;HPM_P1;HPM_P2
2023/02/14 00:01:22;;;;;;;48.50;27.97;;;;;;;;;;5099105;28;20212;-70
2023/02/14 00:03:50;;;;;;;53.67;28.90;;;;;;;;;;5099080;28;20747;-70
2023/02/14 00:06:18;;;;;;;51.07;26.67;;;;;;;;;;5098738;28;20237;-70
2023/02/14 00:08:46;;;;;;;44.23;25.10;;;;;;;;;;5099302;28;20206;-70
2023/02/14 00:11:14;;;;;;;54.93;27.57;;;;;;;;;;5099078;28;20205;-70
2023/02/14 00:15:20;;;;;;;56.57;28.30;;;;;;;;;;5099127;28;20225;-70
2023/02/14 00:16:31;;;;;;;45.53;24.73;;;;;;;;;;5096853;28;20210;-70
2023/02/14 00:19:05;;;;;;;42.47;25.27;;;;;;;;;;5098737;28;20623;-70
2023/02/14 00:21:34;;;;;;;43.73;25.20;;;;;;;;;;5099004;28;20212;-70
2023/02/14 00:24:02;;;;;;;45.07;27.10;;;;;;;;;;5098812;28;20271;-70
2023/02/14 00:26:30;;;;;;;47.93;27.13;;;;;;;;;;5098877;28;20205;-70
2023/02/14 00:28:58;;;;;;;43.23;25.13;;;;;;;;;;5098601;28;20206;-70
2023/02/14 00:31:26;;;;;;;44.63;25.93;;;;;;;;;;5098332;28;20205;-69
2023/02/14 00:33:56;;;;;;;42.03;25.07;;;;;;;;;;5098360;28;20641;-69
2023/02/14 00:36:24;;;;;;;47.03;26.07;;;;;;;;;;5098558;28;20287;-69
2023/02/14 00:38:52;;;;;;;47.07;26.17;;;;;;;;;;5098622;28;20197;-69
2023/02/14 00:41:20;;;;;;;43.63;26.77;;;;;;;;;;5098745;28;20206;-70
2023/02/14 00:43:48;;;;;;;46.37;27.57;;;;;;;;;;5097051;28;20566;-70
2023/02/14 00:46:17;;;;;;;43.50;26.07;;;;;;;;;;5098118;28;20269;-70
2023/02/14 00:48:45;;;;;;;42.77;25.90;;;;;;;;;;5098396;28;20225;-70
2023/02/14 00:51:14;;;;;;;45.60;27.33;;;;;;;;;;5098448;28;20265;-70
2023/02/14 00:53:42;;;;;;;42.30;24.70;;;;;;;;;;5098429;28;20225;-69
2023/02/14 00:56:10;;;;;;;48.23;25.90;;;;;;;;;;5098441;28;20205;-70
2023/02/14 00:58:38;;;;;;;44.57;26.50;;;;;;;;;;5097923;28;20251;-70
2023/02/14 01:01:06;;;;;;;42.50;25.00;;;;;;;;;;5097950;28;20201;-70
2023/02/14 01:03:34;;;;;;;43.93;25.97;;;;;;;;;;5098253;28;20278;-70
2023/02/14 01:06:03;;;;;;;45.00;25.70;;;;;;;;;;5097828;28;20232;-70
2023/02/14 01:08:32;;;;;;;47.23;27.27;;;;;;;;;;5098217;28;20263;-70
2023/02/14 01:11:06;;;;;;;48.27;26.57;;;;;;;;;;5098091;28;20239;-69
2023/02/14 01:13:34;;;;;;;45.20;26.50;;;;;;;;;;5098200;28;20308;-70
2023/02/14 01:16:05;;;;;;;42.87;25.87;;;;;;;;;;5095402;28;20213;-70
2023/02/14 01:18:33;;;;;;;46.83;27.47;;;;;;;;;;5098195;28;20201;-70
2023/02/14 01:21:15;;;;;;;53.90;29.37;;;;;;;;;;5097895;28;20212;-70
2023/02/14 01:23:45;;;;;;;45.53;25.37;;;;;;;;;;5097779;28;20589;-70
2023/02/14 01:26:14;;;;;;;44.67;26.10;;;;;;;;;;5097809;28;20208;-70
2023/02/14 01:28:42;;;;;;;41.90;23.80;;;;;;;;;;5097915;28;20229;-70
2023/02/14 01:31:11;;;;;;;49.10;26.40;;;;;;;;;;5097503;28;20647;-70
2023/02/14 01:33:40;;;;;;;43.33;25.53;;;;;;;;;;5097838;28;20317;-70
2023/02/14 01:36:14;;;;;;;45.33;26.63;;;;;;;;;;5097437;28;20206;-69
2023/02/14 01:38:42;;;;;;;45.17;25.47;;;;;;;;;;5097894;28;20232;-70
2023/02/14 01:41:12;;;;;;;48.00;25.27;;;;;;;;;;5097586;28;20236;-71
2023/02/14 01:43:57;;;;;;;42.03;25.33;;;;;;;;;;5097472;28;20224;-71
2023/02/14 01:46:26;;;;;;;41.17;25.47;;;;;;;;;;5097369;28;20209;-71
2023/02/14 01:48:55;;;;;;;46.57;23.97;;;;;;;;;;5097739;28;20232;-71
2023/02/14 01:51:23;;;;;;;43.80;25.03;;;;;;;;;;5097706;28;20202;-71
2023/02/14 01:53:52;;;;;;;41.00;24.80;;;;;;;;;;5097775;28;20316;-71
2023/02/14 01:56:24;;;;;;;40.10;23.33;;;;;;;;;;5097442;28;20296;-71
2023/02/14 01:58:53;;;;;;;46.50;26.90;;;;;;;;;;5097841;28;20208;-71
2023/02/14 02:01:22;;;;;;;38.10;23.97;;;;;;;;;;5097382;28;20206;-70
2023/02/14 02:03:53;;;;;;;44.53;24.87;;;;;;;;;;5097692;28;20225;-70
2023/02/14 02:06:22;;;;;;;39.47;25.07;;;;;;;;;;5095985;28;20297;-70
2023/02/14 02:08:52;;;;;;;46.50;25.37;;;;;;;;;;5095956;28;20225;-70
2023/02/14 02:11:22;;;;;;;39.87;24.53;;;;;;;;;;5100803;28;20224;-70
2023/02/14 02:13:50;;;;;;;42.00;23.93;;;;;;;;;;5101301;28;20252;-70
2023/02/14 02:16:26;;;;;;;38.43;24.17;;;;;;;;;;5098799;28;20229;-70
2023/02/14 02:19:00;;;;;;;45.43;23.07;;;;;;;;;;5100942;28;20197;-70
2023/02/14 02:21:45;;;;;;;44.87;24.33;;;;;;;;;;5101104;28;20208;-70
2023/02/14 02:24:30;;;;;;;47.13;23.43;;;;;;;;;;5100865;28;20278;-70
2023/02/14 02:27:16;;;;;;;39.43;22.43;;;;;;;;;;5100947;28;20193;-70
2023/02/14 02:30:02;;;;;;;38.80;24.27;;;;;;;;;;5101025;28;20264;-70
2023/02/14 02:32:53;;;;;;;40.20;22.53;;;;;;;;;;5098935;28;20352;-70
2023/02/14 02:35:28;;;;;;;38.97;22.47;;;;;;;;;;5100633;28;20241;-70
2023/02/14 02:38:03;;;;;;;42.07;24.53;;;;;;;;;;5100735;28;20242;-71
2023/02/14 02:40:37;;;;;;;40.37;25.23;;;;;;;;;;5101011;28;20209;-70
2023/02/14 02:43:09;;;;;;;39.93;24.63;;;;;;;;;;5100631;28;20715;-70
2023/02/14 02:46:46;;;;;;;39.43;23.37;;;;;;;;;;5100348;28;20245;-70
2023/02/14 02:48:34;;;;;;;44.77;24.73;;;;;;;;;;5100329;28;20511;-70
2023/02/14 02:53:53;;;;;;;47.77;25.53;;;;;;;;;;5100666;28;20459;-70
2023/02/14 02:59:17;;;;;;;46.10;26.20;;;;;;;;;;5100417;28;20475;-70
2023/02/14 03:01:47;;;;;;;40.93;26.47;;;;;;;;;;5100287;28;20443;-70
2023/02/14 03:07:33;;;;;;;46.43;24.83;;;;;;;;;;5100515;28;20444;-68
2023/02/14 03:09:57;;;;;;;41.80;24.67;;;;;;;;;;5099950;28;20479;-69
2023/02/14 03:12:50;;;;;;;41.13;24.30;;;;;;;;;;5100211;28;20472;-70
2023/02/14 03:15:22;;;;;;;40.20;23.67;;;;;;;;;;5073367;28;20198;-70
2023/02/14 03:17:55;;;;;;;40.10;24.00;;;;;;;;;;5099551;28;20915;-70
2023/02/14 03:20:23;;;;;;;49.27;24.37;;;;;;;;;;5099618;28;20467;-70
2023/02/14 03:22:57;;;;;;;38.70;22.63;;;;;;;;;;5099991;28;20455;-70
2023/02/14 03:25:31;;;;;;;40.13;23.57;;;;;;;;;;5093953;28;20194;-70
2023/02/14 03:28:01;;;;;;;37.83;22.67;;;;;;;;;;5093156;28;20479;-70
2023/02/14 03:30:35;;;;;;;42.90;24.07;;;;;;;;;;5090519;28;20547;-70
2023/02/14 03:33:05;;;;;;;40.43;23.87;;;;;;;;;;5089512;28;20476;-70
2023/02/14 03:35:36;;;;;;;39.17;23.97;;;;;;;;;;5107191;28;20985;-70
2023/02/14 03:38:08;;;;;;;40.93;24.20;;;;;;;;;;5101017;28;20479;-70
2023/02/14 03:40:38;;;;;;;43.37;23.50;;;;;;;;;;5099527;28;20450;-70
2023/02/14 03:43:08;;;;;;;40.70;22.83;;;;;;;;;;5099476;28;20483;-70
2023/02/14 03:45:38;;;;;;;42.50;23.63;;;;;;;;;;5098002;28;20475;-70
2023/02/14 03:48:09;;;;;;;46.27;25.00;;;;;;;;;;5088051;28;20471;-70
2023/02/14 03:50:38;;;;;;;44.97;24.93;;;;;;;;;;5099677;28;20451;-70
2023/02/14 03:53:09;;;;;;;40.53;23.33;;;;;;;;;;5110433;28;20503;-70
2023/02/14 03:55:40;;;;;;;42.33;23.80;;;;;;;;;;5099303;28;20530;-70
2023/02/14 03:58:10;;;;;;;37.27;23.83;;;;;;;;;;5099529;28;20444;-70
2023/02/14 04:00:41;;;;;;;45.13;26.07;;;;;;;;;;5099172;28;20454;-70
2023/02/14 04:03:10;;;;;;;44.27;23.07;;;;;;;;;;5093850;28;20471;-70
2023/02/14 04:05:42;;;;;;;41.67;21.87;;;;;;;;;;5098800;28;20938;-70
2023/02/14 04:08:11;;;;;;;43.80;25.57;;;;;;;;;;5099008;28;20530;-70
2023/02/14 04:10:42;;;;;;;42.70;23.47;;;;;;;;;;5099235;28;20486;-70
2023/02/14 04:13:10;;;;;;;42.47;23.77;;;;;;;;;;5085398;28;20499;-70
2023/02/14 04:15:38;;;;;;;42.03;24.27;;;;;;;;;;5096689;28;20454;-70
2023/02/14 04:20:51;;;;;;;38.50;23.07;;;;;;;;;;5098093;28;20432;-70
2023/02/14 04:23:20;;;;;;;38.17;22.80;;;;;;;;;;5098648;28;20478;-70
2023/02/14 04:25:48;;;;;;;37.60;23.23;;;;;;;;;;5098612;28;20439;-70
2023/02/14 04:28:16;;;;;;;46.87;24.40;;;;;;;;;;5098599;28;20443;-70
2023/02/14 04:30:44;;;;;;;47.53;25.03;;;;;;;;;;5098428;28;20517;-70
2023/02/14 04:33:12;;;;;;;44.93;25.07;;;;;;;;;;5098327;28;20464;-70
2023/02/14 04:35:40;;;;;;;44.97;24.70;;;;;;;;;;5097949;28;20852;-70
2023/02/14 04:38:08;;;;;;;44.20;25.97;;;;;;;;;;5096604;28;20476;-70
2023/02/14 04:40:38;;;;;;;46.00;25.87;;;;;;;;;;5098141;28;20471;-70
2023/02/14 04:43:07;;;;;;;41.30;23.90;;;;;;;;;;5095959;28;20584;-70
2023/02/14 04:45:34;;;;;;;37.27;22.97;;;;;;;;;;5098008;28;20451;-70
2023/02/14 04:48:02;;;;;;;40.97;23.47;;;;;;;;;;5104018;28;20439;-70
2023/02/14 04:50:30;;;;;;;46.57;22.67;;;;;;;;;;5098468;28;20487;-69
2023/02/14 04:52:59;;;;;;;41.10;21.33;;;;;;;;;;5098109;28;20459;-70
2023/02/14 04:55:27;;;;;;;43.77;23.47;;;;;;;;;;5095120;28;20443;-69
2023/02/14 04:57:56;;;;;;;37.33;21.87;;;;;;;;;;5084621;28;20475;-70
2023/02/14 05:00:24;;;;;;;40.00;22.60;;;;;;;;;;5097686;28;20938;-70
2023/02/14 05:02:52;;;;;;;37.47;21.97;;;;;;;;;;5098085;28;20463;-69
2023/02/14 05:05:20;;;;;;;38.90;22.10;;;;;;;;;;5097894;28;20530;-70
2023/02/14 05:07:48;;;;;;;47.30;24.67;;;;;;;;;;5097996;28;20538;-70
2023/02/14 05:10:16;;;;;;;37.77;22.27;;;;;;;;;;5098073;28;20515;-70
2023/02/14 05:12:44;;;;;;;51.00;23.07;;;;;;;;;;5097897;28;20898;-70
2023/02/14 05:15:14;;;;;;;34.57;21.13;;;;;;;;;;5097902;28;20812;-70
2023/02/14 05:17:42;;;;;;;38.47;22.37;;;;;;;;;;5097991;28;20451;-70
2023/02/14 05:20:10;;;;;;;46.13;22.83;;;;;;;;;;5097621;28;20467;-70
2023/02/14 05:22:38;;;;;;;40.97;21.83;;;;;;;;;;5097779;28;20562;-70
2023/02/14 05:25:06;;;;;;;33.80;22.40;;;;;;;;;;5097747;28;20483;-70
2023/02/14 05:27:34;;;;;;;35.10;21.70;;;;;;;;;;5098041;28;20444;-70
2023/02/14 05:30:05;;;;;;;35.23;21.33;;;;;;;;;;5097837;28;20510;-70
2023/02/14 05:32:35;;;;;;;36.40;22.67;;;;;;;;;;5097464;28;20848;-70
2023/02/14 05:35:02;;;;;;;36.27;22.70;;;;;;;;;;5097920;28;20453;-69
2023/02/14 05:37:30;;;;;;;37.23;22.43;;;;;;;;;;5097709;28;20471;-70
2023/02/14 05:39:59;;;;;;;44.97;21.70;;;;;;;;;;5097219;28;20447;-70
2023/02/14 05:42:27;;;;;;;38.90;22.67;;;;;;;;;;5097718;28;20439;-70
2023/02/14 05:44:54;;;;;;;37.17;21.90;;;;;;;;;;5098887;28;20462;-70
2023/02/14 05:47:22;;;;;;;34.77;21.23;;;;;;;;;;5101706;28;20470;-70
2023/02/14 05:49:52;;;;;;;43.87;23.17;;;;;;;;;;5101556;28;20487;-70
2023/02/14 05:52:20;;;;;;;39.83;22.53;;;;;;;;;;5101795;28;20451;-70
2023/02/14 05:54:48;;;;;;;38.77;21.27;;;;;;;;;;5101711;28;20457;-70
2023/02/14 05:57:16;;;;;;;43.33;22.47;;;;;;;;;;5101743;28;20440;-70
2023/02/14 05:59:44;;;;;;;39.83;22.63;;;;;;;;;;5101554;28;20451;-70
2023/02/14 06:02:13;;;;;;;35.03;21.03;;;;;;;;;;5101183;28;21027;-70
2023/02/14 06:04:41;;;;;;;37.37;22.43;;;;;;;;;;5101484;28;20470;-70
2023/02/14 06:07:10;;;;;;;38.70;22.37;;;;;;;;;;5101331;28;20530;-70
2023/02/14 06:09:38;;;;;;;39.87;21.40;;;;;;;;;;5101456;28;20447;-70
2023/02/14 06:12:06;;;;;;;40.17;22.10;;;;;;;;;;5101267;28;20443;-69
2023/02/14 06:14:34;;;;;;;32.93;20.43;;;;;;;;;;5101149;28;20997;-70
2023/02/14 06:17:02;;;;;;;34.17;20.67;;;;;;;;;;5100793;28;20471;-69
2023/02/14 06:19:30;;;;;;;37.70;23.17;;;;;;;;;;5100900;28;20530;-70
2023/02/14 06:21:58;;;;;;;49.83;23.17;;;;;;;;;;5087636;28;20454;-68
2023/02/14 06:24:28;;;;;;;39.70;22.17;;;;;;;;;;5100863;28;20546;-69
2023/02/14 06:26:56;;;;;;;38.10;22.97;;;;;;;;;;5097803;28;20978;-68
2023/02/14 06:29:24;;;;;;;36.70;23.00;;;;;;;;;;5100124;28;20439;-70
2023/02/14 06:31:52;;;;;;;40.00;22.23;;;;;;;;;;5100736;28;20479;-70
2023/02/14 06:34:20;;;;;;;43.63;23.77;;;;;;;;;;5100377;28;20466;-67
2023/02/14 06:36:48;;;;;;;40.00;22.57;;;;;;;;;;5100781;28;20507;-68
2023/02/14 06:39:16;;;;;;;37.17;22.57;;;;;;;;;;5101100;28;20467;-65
2023/02/14 06:41:45;;;;;;;38.07;22.47;;;;;;;;;;5094964;28;20556;-65
2023/02/14 06:44:13;;;;;;;37.73;21.83;;;;;;;;;;5100255;28;20978;-65
2023/02/14 06:46:41;;;;;;;35.33;22.53;;;;;;;;;;5099925;28;20443;-65
2023/02/14 06:49:09;;;;;;;43.90;23.97;;;;;;;;;;5100442;28;20471;-65
2023/02/14 06:51:37;;;;;;;39.40;22.63;;;;;;;;;;5100590;28;20539;-65
2023/02/14 06:54:05;;;;;;;37.37;21.80;;;;;;;;;;5100522;28;20491;-67
2023/02/14 06:56:33;;;;;;;40.93;21.53;;;;;;;;;;5092705;28;20526;-67
2023/02/14 06:59:03;;;;;;;41.50;24.07;;;;;;;;;;5100492;28;20523;-67
2023/02/14 07:01:31;;;;;;;44.00;23.83;;;;;;;;;;5100413;28;20476;-67
2023/02/14 07:03:59;;;;;;;39.03;22.73;;;;;;;;;;5099943;28;20840;-68
2023/02/14 07:06:27;;;;;;;46.37;25.47;;;;;;;;;;5100032;28;20454;-68
2023/02/14 07:08:55;;;;;;;38.17;22.87;;;;;;;;;;5100365;28;20471;-67
2023/02/14 07:11:23;;;;;;;38.27;23.17;;;;;;;;;;5099770;28;20507;-67
2023/02/14 07:13:51;;;;;;;38.00;22.40;;;;;;;;;;5100781;28;20530;-68
2023/02/14 07:16:20;;;;;;;42.57;22.47;;;;;;;;;;5099802;28;20511;-68
2023/02/14 07:18:49;;;;;;;42.10;23.30;;;;;;;;;;5099864;28;20444;-68
2023/02/14 07:21:17;;;;;;;44.07;22.97;;;;;;;;;;5093286;28;20471;-68
2023/02/14 07:23:48;;;;;;;39.20;22.17;;;;;;;;;;5099805;28;20463;-67
2023/02/14 07:26:17;;;;;;;44.83;23.87;;;;;;;;;;5099752;28;20444;-67
2023/02/14 07:28:45;;;;;;;36.30;22.47;;;;;;;;;;5097115;28;20205;-67
2023/02/14 07:31:13;;;;;;;42.17;23.70;;;;;;;;;;5094339;28;20221;-67
2023/02/14 07:33:42;;;;;;;36.20;22.43;;;;;;;;;;5099926;28;20236;-66
2023/02/14 07:36:10;;;;;;;38.87;21.93;;;;;;;;;;5098885;28;20527;-67
2023/02/14 07:38:39;;;;;;;37.90;22.30;;;;;;;;;;5099536;28;20436;-66
2023/02/14 07:41:07;;;;;;;43.87;23.57;;;;;;;;;;5099737;28;20458;-66
2023/02/14 07:43:35;;;;;;;36.93;22.10;;;;;;;;;;5099588;28;20539;-66
2023/02/14 07:46:03;;;;;;;37.10;22.13;;;;;;;;;;5098115;28;20443;-67
2023/02/14 07:48:31;;;;;;;54.07;23.47;;;;;;;;;;5100768;28;20435;-69
2023/02/14 07:51:03;;;;;;;41.37;22.77;;;;;;;;;;5099384;28;20529;-70
2023/02/14 07:53:31;;;;;;;37.50;23.33;;;;;;;;;;5099058;28;20467;-68
2023/02/14 07:55:59;;;;;;;39.90;22.37;;;;;;;;;;5093838;28;20520;-69
2023/02/14 07:58:27;;;;;;;38.50;22.87;;;;;;;;;;5084470;28;20845;-69
2023/02/14 08:00:55;;;;;;;35.83;21.20;;;;;;;;;;5097580;28;20458;-68
2023/02/14 08:03:23;;;;;;;35.87;21.97;;;;;;;;;;5086832;28;20559;-70
2023/02/14 08:05:55;;;;;;;44.47;24.27;;;;;;;;;;5098121;28;20435;-68
2023/02/14 08:08:26;;;;;;;42.97;23.53;;;;;;;;;;5097873;28;20628;-65
2023/02/14 08:10:54;;;;;;;47.73;24.23;;;;;;;;;;5099054;28;20217;-66
2023/02/14 08:13:22;;;;;;;44.63;22.03;;;;;;;;;;5098956;28;20225;-68
2023/02/14 08:16:06;;;;;;;42.70;23.67;;;;;;;;;;5098527;28;20700;-67
2023/02/14 08:18:35;;;;;;;42.90;22.13;;;;;;;;;;5098930;28;20539;-68
2023/02/14 08:21:04;;;;;;;45.60;22.80;;;;;;;;;;5097045;28;20229;-68
2023/02/14 08:23:33;;;;;;;46.23;23.90;;;;;;;;;;5098833;28;20236;-67
2023/02/14 08:26:01;;;;;;;49.03;22.90;;;;;;;;;;5098817;28;20237;-68
2023/02/14 08:28:31;;;;;;;38.17;22.10;;;;;;;;;;5098631;28;20205;-68
2023/02/14 08:31:00;;;;;;;41.03;22.57;;;;;;;;;;5098126;28;20700;-66
2023/02/14 08:33:28;;;;;;;39.53;22.37;;;;;;;;;;5098634;28;20279;-72
2023/02/14 08:35:56;;;;;;;39.93;21.27;;;;;;;;;;5098507;28;20206;-72
2023/02/14 08:38:24;;;;;;;39.50;22.23;;;;;;;;;;5081224;28;20260;-71
2023/02/14 08:40:54;;;;;;;39.37;21.50;;;;;;;;;;5090083;28;20248;-71
2023/02/14 08:43:22;;;;;;;30.83;20.17;;;;;;;;;;5097322;28;20218;-71
2023/02/14 08:45:52;;;;;;;39.67;20.43;;;;;;;;;;5097640;28;20740;-71
2023/02/14 08:48:22;;;;;;;34.67;19.13;;;;;;;;;;5097827;28;20213;-71
2023/02/14 08:50:50;;;;;;;41.07;20.80;;;;;;;;;;5098053;28;20237;-71
2023/02/14 08:53:18;;;;;;;32.50;19.33;;;;;;;;;;5098127;28;20303;-71
2023/02/14 08:55:46;;;;;;;35.30;19.50;;;;;;;;;;5081576;28;20228;-71
2023/02/14 08:58:15;;;;;;;41.37;19.87;;;;;;;;;;5090090;28;20273;-71
2023/02/14 09:00:43;;;;;;;35.93;20.43;;;;;;;;;;5097165;28;20617;-71
2023/02/14 09:03:11;;;;;;;31.30;19.17;;;;;;;;;;5097617;28;20218;-71
2023/02/14 09:05:39;;;;;;;28.30;17.37;;;;;;;;;;5097506;28;20244;-71
2023/02/14 09:08:07;;;;;;;33.27;18.07;;;;;;;;;;5097690;28;20258;-71
2023/02/14 09:10:36;;;;;;;27.57;18.20;;;;;;;;;;5095657;28;20660;-71
2023/02/14 09:13:04;;;;;;;30.70;17.50;;;;;;;;;;5087068;28;20245;-73
2023/02/14 09:15:33;;;;;;;32.13;18.93;;;;;;;;;;5096235;28;20229;-73
2023/02/14 09:18:01;;;;;;;33.47;18.53;;;;;;;;;;5097728;28;20231;-72
2023/02/14 09:20:30;;;;;;;35.03;18.67;;;;;;;;;;5097020;28;20684;-72
2023/02/14 09:22:58;;;;;;;30.33;17.93;;;;;;;;;;5097462;28;20253;-73
2023/02/14 09:25:26;;;;;;;34.40;18.83;;;;;;;;;;5084523;28;20299;-71
2023/02/14 09:27:54;;;;;;;40.07;19.67;;;;;;;;;;5088493;28;20229;-72
2023/02/14 09:30:22;;;;;;;35.03;20.10;;;;;;;;;;5083862;28;20204;-73
2023/02/14 09:32:52;;;;;;;33.07;20.30;;;;;;;;;;5080615;28;20248;-72
2023/02/14 09:38:06;;;;;;;38.43;20.37;;;;;;;;;;5082525;28;20337;-71
2023/02/14 09:40:34;;;;;;;33.40;18.97;;;;;;;;;;5082024;28;20197;-71
2023/02/14 09:43:09;;;;;;;36.73;19.57;;;;;;;;;;5083185;28;20209;-70
2023/02/14 09:45:38;;;;;;;38.03;18.40;;;;;;;;;;5086196;28;20201;-73
2023/02/14 09:48:10;;;;;;;33.77;18.80;;;;;;;;;;5080399;28;20284;-72
2023/02/14 09:50:42;;;;;;;28.57;17.27;;;;;;;;;;5082341;28;20258;-73
2023/02/14 09:53:17;;;;;;;28.80;17.90;;;;;;;;;;5081070;28;20226;-72
2023/02/14 09:55:48;;;;;;;32.63;18.23;;;;;;;;;;5084990;28;20288;-72
2023/02/14 09:58:20;;;;;;;27.00;17.37;;;;;;;;;;5083971;28;20296;-73
2023/02/14 10:00:52;;;;;;;27.03;18.13;;;;;;;;;;5080714;28;20239;-71
2023/02/14 10:03:32;;;;;;;30.90;16.93;;;;;;;;;;5086954;28;20341;-70
2023/02/14 10:06:03;;;;;;;31.97;18.33;;;;;;;;;;5079304;28;20715;-69
2023/02/14 10:08:41;;;;;;;24.67;16.27;;;;;;;;;;5084938;28;20197;-70
2023/02/14 10:11:10;;;;;;;26.80;16.17;;;;;;;;;;5079005;28;20205;-71
2023/02/14 10:13:40;;;;;;;27.50;16.70;;;;;;;;;;5078103;28;20236;-70
2023/02/14 10:16:11;;;;;;;26.93;16.20;;;;;;;;;;5077857;28;20229;-70
2023/02/14 10:18:45;;;;;;;29.50;17.53;;;;;;;;;;5087265;28;20234;-70
2023/02/14 10:21:15;;;;;;;28.07;17.80;;;;;;;;;;5079417;28;20604;-70
2023/02/14 10:23:49;;;;;;;32.53;20.83;;;;;;;;;;5086059;28;20271;-71
2023/02/14 10:26:19;;;;;;;54.77;31.23;;;;;;;;;;5079112;28;20813;-70
2023/02/14 10:28:49;;;;;;;30.63;18.47;;;;;;;;;;5085408;28;20292;-70
2023/02/14 10:31:21;;;;;;;30.97;16.87;;;;;;;;;;5083539;28;20201;-69
2023/02/14 10:33:52;;;;;;;28.53;17.03;;;;;;;;;;5085116;28;20317;-69
2023/02/14 10:36:33;;;;;;;33.97;16.17;;;;;;;;;;5085005;28;20205;-69
2023/02/14 10:39:03;;;;;;;25.40;15.17;;;;;;;;;;5091497;28;20228;-70
2023/02/14 10:41:38;;;;;;;30.83;16.20;;;;;;;;;;5084363;28;20566;-69
2023/02/14 10:44:14;;;;;;;26.23;15.53;;;;;;;;;;5085072;28;20244;-67
2023/02/14 10:46:45;;;;;;;26.17;16.13;;;;;;;;;;5083979;28;20212;-71
2023/02/14 10:49:22;;;;;;;29.13;15.43;;;;;;;;;;5084479;28;20292;-70
2023/02/14 10:51:52;;;;;;;28.83;17.27;;;;;;;;;;5088392;28;20194;-71
2023/02/14 10:54:22;;;;;;;27.13;16.13;;;;;;;;;;5088360;28;20237;-71
2023/02/14 10:56:53;;;;;;;27.80;16.03;;;;;;;;;;5093559;28;20237;-71
2023/02/14 10:59:26;;;;;;;26.60;15.37;;;;;;;;;;5099587;28;20652;-72
2023/02/14 11:01:55;;;;;;;35.17;19.23;;;;;;;;;;5096559;28;20232;-71
2023/02/14 11:04:25;;;;;;;29.27;17.40;;;;;;;;;;5096549;28;20308;-70
2023/02/14 11:06:53;;;;;;;29.53;16.33;;;;;;;;;;5093345;28;20225;-69
2023/02/14 11:09:21;;;;;;;28.80;16.40;;;;;;;;;;5097566;28;20204;-70
2023/02/14 11:11:51;;;;;;;26.23;16.03;;;;;;;;;;5092672;28;20283;-71
2023/02/14 11:14:20;;;;;;;24.97;16.00;;;;;;;;;;5085718;28;20234;-70
2023/02/14 11:16:50;;;;;;;30.37;16.50;;;;;;;;;;5082361;28;20221;-69
2023/02/14 11:19:20;;;;;;;29.93;16.63;;;;;;;;;;5086463;28;20207;-71
2023/02/14 11:21:50;;;;;;;23.20;15.50;;;;;;;;;;5087105;28;20198;-74
2023/02/14 11:24:19;;;;;;;28.03;16.27;;;;;;;;;;5082987;28;20206;-71
2023/02/14 11:26:48;;;;;;;26.83;17.13;;;;;;;;;;5078910;28;20204;-74
2023/02/14 11:29:18;;;;;;;24.13;15.80;;;;;;;;;;5084716;28;20208;-73
2023/02/14 11:31:46;;;;;;;29.93;17.23;;;;;;;;;;5083074;28;20228;-73
2023/02/14 11:34:30;;;;;;;31.10;16.67;;;;;;;;;;5082729;28;20225;-72
2023/02/14 11:37:00;;;;;;;31.50;17.17;;;;;;;;;;5081310;28;20260;-73
2023/02/14 11:39:30;;;;;;;28.70;16.47;;;;;;;;;;5084859;28;20777;-76
2023/02/14 11:41:59;;;;;;;30.70;16.73;;;;;;;;;;5088689;28;20289;-73
2023/02/14 11:44:28;;;;;;;30.23;15.97;;;;;;;;;;5085602;28;20213;-73
2023/02/14 11:46:57;;;;;;;31.00;16.13;;;;;;;;;;5093261;28;20647;-71
2023/02/14 11:49:28;;;;;;;25.57;16.20;;;;;;;;;;5084448;28;20213;-73
2023/02/14 11:51:56;;;;;;;28.00;17.47;;;;;;;;;;5081480;28;20217;-72
2023/02/14 11:54:29;;;;;;;31.07;16.40;;;;;;;;;;5083802;28;20218;-72
2023/02/14 11:57:02;;;;;;;32.07;16.83;;;;;;;;;;5085905;28;20201;-65
2023/02/14 11:59:32;;;;;;;28.20;16.07;;;;;;;;;;5085539;28;20202;-66
2023/02/14 12:02:05;;;;;;;33.13;16.23;;;;;;;;;;5086034;28;20198;-67
2023/02/14 12:04:36;;;;;;;26.33;15.47;;;;;;;;;;5084313;28;20221;-65
2023/02/14 12:07:15;;;;;;;26.27;15.90;;;;;;;;;;5083944;28;20535;-66
2023/02/14 12:09:46;;;;;;;28.93;16.90;;;;;;;;;;5085547;28;20208;-68
2023/02/14 12:12:17;;;;;;;27.80;17.00;;;;;;;;;;5082998;28;20198;-68
2023/02/14 12:14:49;;;;;;;25.63;16.17;;;;;;;;;;5090299;28;20243;-67
2023/02/14 12:17:28;;;;;;;26.43;16.17;;;;;;;;;;5083792;28;20202;-66
2023/02/14 12:20:01;;;;;;;27.63;16.87;;;;;;;;;;5088209;28;20232;-68
2023/02/14 12:22:31;;;;;;;26.03;15.90;;;;;;;;;;5082398;28;20222;-67
2023/02/14 12:25:03;;;;;;;27.63;16.60;;;;;;;;;;5081142;28;20196;-68
2023/02/14 12:27:32;;;;;;;26.80;15.80;;;;;;;;;;5085304;28;20263;-67
2023/02/14 12:30:04;;;;;;;32.77;17.50;;;;;;;;;;5083022;28;20244;-67
2023/02/14 12:32:32;;;;;;;26.53;16.03;;;;;;;;;;5088218;28;20681;-68
2023/02/14 12:35:03;;;;;;;26.53;16.63;;;;;;;;;;5084075;28;20217;-66
2023/02/14 12:37:39;;;;;;;25.90;14.50;;;;;;;;;;5087449;28;20320;-68
2023/02/14 12:40:11;;;;;;;26.60;15.00;;;;;;;;;;5093952;28;20201;-66
2023/02/14 12:42:48;;;;;;;25.57;15.97;;;;;;;;;;5091955;28;20212;-67
2023/02/14 12:45:20;;;;;;;33.33;16.30;;;;;;;;;;5094882;28;20280;-68
2023/02/14 12:47:52;;;;;;;23.70;15.27;;;;;;;;;;5097148;28;20205;-68
2023/02/14 12:50:27;;;;;;;26.73;15.90;;;;;;;;;;5094429;28;20233;-66
2023/02/14 12:53:03;;;;;;;25.33;14.03;;;;;;;;;;5094397;28;20762;-66
2023/02/14 12:55:43;;;;;;;21.57;14.20;;;;;;;;;;5094755;28;20201;-67
2023/02/14 12:58:17;;;;;;;25.07;15.20;;;;;;;;;;5095564;28;20200;-67
2023/02/14 13:00:52;;;;;;;27.70;14.27;;;;;;;;;;5093500;28;20201;-68
2023/02/14 13:03:26;;;;;;;24.93;14.97;;;;;;;;;;5092381;28;20240;-67
2023/02/14 13:05:58;;;;;;;25.03;14.50;;;;;;;;;;5094968;28;20212;-67
2023/02/14 13:08:33;;;;;;;27.10;14.87;;;;;;;;;;5092473;28;20198;-66
2023/02/14 13:11:08;;;;;;;27.77;16.00;;;;;;;;;;5092664;28;20201;-68
2023/02/14 13:13:41;;;;;;;31.27;14.30;;;;;;;;;;5092548;28;20221;-67
2023/02/14 13:16:13;;;;;;;30.67;15.50;;;;;;;;;;5095854;28;20202;-68
2023/02/14 13:18:47;;;;;;;24.27;13.43;;;;;;;;;;5091704;28;20197;-68
2023/02/14 13:21:16;;;;;;;26.83;14.00;;;;;;;;;;5095197;28;20671;-67
2023/02/14 13:23:46;;;;;;;25.60;13.50;;;;;;;;;;5094893;28;20592;-67
2023/02/14 13:26:17;;;;;;;27.23;14.63;;;;;;;;;;5099031;28;20276;-68
2023/02/14 13:28:49;;;;;;;27.63;14.23;;;;;;;;;;5097144;28;20288;-67
2023/02/14 13:31:18;;;;;;;33.90;15.73;;;;;;;;;;5095407;28;20574;-68
2023/02/14 13:33:49;;;;;;;22.97;13.57;;;;;;;;;;5096721;28;20221;-67
2023/02/14 13:36:17;;;;;;;27.43;13.53;;;;;;;;;;5092471;28;20232;-69
2023/02/14 13:38:48;;;;;;;24.43;12.97;;;;;;;;;;5096387;28;20233;-70
2023/02/14 13:41:18;;;;;;;24.90;12.40;;;;;;;;;;5095971;28;20228;-69
2023/02/14 13:43:56;;;;;;;24.80;12.10;;;;;;;;;;5095331;28;20308;-69
2023/02/14 13:46:42;;;;;;;22.10;12.57;;;;;;;;;;5087041;28;20226;-69
2023/02/14 13:49:20;;;;;;;23.17;12.23;;;;;;;;;;5080394;28;20213;-70
2023/02/14 13:51:50;;;;;;;25.13;13.20;;;;;;;;;;5097696;28;20228;-70
2023/02/14 13:54:22;;;;;;;22.80;12.60;;;;;;;;;;5087377;28;20295;-69
2023/02/14 13:56:51;;;;;;;21.97;12.83;;;;;;;;;;5094432;28;20208;-70
2023/02/14 13:59:29;;;;;;;30.83;13.07;;;;;;;;;;5096867;28;20546;-71
2023/02/14 14:02:30;;;;;;;27.20;11.43;;;;;;;;;;5093546;28;20206;-70
2023/02/14 14:04:59;;;;;;;23.83;11.87;;;;;;;;;;5084556;28;20226;-70
2023/02/14 14:07:29;;;;;;;19.77;11.77;;;;;;;;;;5093317;28;20205;-70
2023/02/14 14:10:01;;;;;;;22.97;12.20;;;;;;;;;;5089171;28;20194;-71
2023/02/14 14:12:41;;;;;;;17.47;9.80;;;;;;;;;;5095965;28;20223;-70
2023/02/14 14:15:10;;;;;;;15.43;9.20;;;;;;;;;;5082362;28;20225;-71
2023/02/14 14:17:39;;;;;;;16.30;9.77;;;;;;;;;;5096501;28;20681;-65
2023/02/14 14:20:21;;;;;;;14.70;9.03;;;;;;;;;;5098153;28;20668;-68
2023/02/14 14:22:50;;;;;;;15.20;8.60;;;;;;;;;;5099267;28;20719;-66
2023/02/14 14:25:29;;;;;;;39.10;12.63;;;;;;;;;;5100128;28;20233;-70
2023/02/14 14:27:59;;;;;;;19.97;9.17;;;;;;;;;;5096022;28;20208;-68
2023/02/14 14:30:30;;;;;;;35.30;10.70;;;;;;;;;;5099635;28;20261;-68
2023/02/14 14:33:12;;;;;;;76.80;16.40;;;;;;;;;;5086785;28;20221;-68
2023/02/14 14:35:40;;;;;;;18.77;7.53;;;;;;;;;;5083877;28;20628;-68
2023/02/14 14:38:13;;;;;;;18.27;7.57;;;;;;;;;;5079287;28;20717;-68
2023/02/14 14:40:45;;;;;;;31.50;10.17;;;;;;;;;;5082025;28;20233;-68
2023/02/14 14:43:17;;;;;;;17.70;7.10;;;;;;;;;;5082066;28;20225;-65
2023/02/14 14:45:46;;;;;;;14.13;6.50;;;;;;;;;;5082943;28;20285;-65
2023/02/14 14:48:17;;;;;;;13.60;7.30;;;;;;;;;;5096439;28;20197;-66
2023/02/14 14:50:47;;;;;;;21.70;8.43;;;;;;;;;;5098647;28;20217;-67
2023/02/14 14:53:20;;;;;;;20.17;9.10;;;;;;;;;;5095740;28;20213;-67